Terminal Aerodrome Forecast
Issued by NWS Cleveland, OH

Home | Current Version | Previous Version | Text Only | Print | Product List | Glossary Off
Versions: 1 2 3 4 5 6 7 8 9 10 11 12 13 14 15 16 17 18 19

000
FTUS41 KCLE 290539
TAFYNG
TAF
KYNG 290539Z 2906/3006 08005KT 5SM -SHRA BR OVC005
      TEMPO 2910/2912 3/4SM BR OVC001
     FM291300 03005KT 4SM BR OVC006
     FM291600 01005KT P6SM OVC007
     FM291800 34007KT P6SM OVC015=

USA.gov is the U.S. government's official web portal to all federal, state and local government web resources and services.